createdAt,value
2018-03-26T00:00:00.150Z,20.27
2018-03-26T00:01:02.628Z,20.32
2018-03-26T00:02:05.128Z,20.40
2018-03-26T00:03:07.635Z,20.46
2018-03-26T00:04:10.135Z,20.52
2018-03-26T00:05:12.627Z,20.56
2018-03-26T00:06:15.133Z,20.62
2018-03-26T00:07:17.627Z,20.67
2018-03-26T00:08:20.155Z,20.70
2018-03-26T00:09:22.677Z,20.74
2018-03-26T00:10:26.080Z,20.76
2018-03-26T00:11:28.589Z,20.78
2018-03-26T00:12:31.088Z,20.80
2018-03-26T00:13:33.594Z,20.81
2018-03-26T00:14:36.103Z,20.82
2018-03-26T00:15:38.594Z,20.81
2018-03-26T00:16:41.097Z,20.82
2018-03-26T00:17:43.572Z,20.82
2018-03-26T00:18:46.072Z,20.81
2018-03-26T00:19:48.593Z,20.80
2018-03-26T00:20:51.083Z,20.80
2018-03-26T00:21:53.624Z,20.78
2018-03-26T00:22:56.104Z,20.78
2018-03-26T00:23:58.606Z,20.79
2018-03-26T00:25:01.118Z,20.77
2018-03-26T00:26:03.610Z,20.75
2018-03-26T00:27:06.094Z,20.75
2018-03-26T00:28:08.586Z,20.73
2018-03-26T00:29:11.088Z,20.71
2018-03-26T00:30:13.644Z,20.69
2018-03-26T00:31:16.126Z,20.68
2018-03-26T00:32:18.614Z,20.66
2018-03-26T00:33:21.121Z,20.64
2018-03-26T00:34:23.610Z,20.63
2018-03-26T00:35:26.106Z,20.62
2018-03-26T00:36:28.607Z,20.61
2018-03-26T00:37:31.089Z,20.60
2018-03-26T00:38:33.583Z,20.57
2018-03-26T00:39:36.074Z,20.56
2018-03-26T00:40:38.584Z,20.55
2018-03-26T00:41:41.085Z,20.53
2018-03-26T00:42:43.575Z,20.53
2018-03-26T00:43:46.058Z,20.52
2018-03-26T00:44:48.568Z,20.51
2018-03-26T00:45:51.070Z,20.50
2018-03-26T00:46:53.570Z,20.49
2018-03-26T00:47:56.077Z,20.48
2018-03-26T00:48:58.552Z,20.47
2018-03-26T00:50:01.124Z,20.45
2018-03-26T00:51:03.634Z,20.45
2018-03-26T00:52:06.108Z,20.44
2018-03-26T00:53:08.585Z,20.43
2018-03-26T00:54:11.072Z,20.42
2018-03-26T00:55:13.576Z,20.41
2018-03-26T00:56:16.087Z,20.40
2018-03-26T00:57:18.576Z,20.39
2018-03-26T00:58:21.062Z,20.38
2018-03-26T00:59:23.550Z,20.37
2018-03-26T01:00:26.036Z,20.36
2018-03-26T01:01:28.551Z,20.35
2018-03-26T01:02:31.054Z,20.35
2018-03-26T01:03:33.543Z,20.34
2018-03-26T01:04:36.012Z,20.34
2018-03-26T01:05:38.503Z,20.34
2018-03-26T01:06:41.009Z,20.36
2018-03-26T01:07:43.491Z,20.41
2018-03-26T01:08:45.960Z,20.47
2018-03-26T01:09:48.465Z,20.52
2018-03-26T01:10:50.936Z,20.58
2018-03-26T01:11:53.446Z,20.64
2018-03-26T01:12:55.982Z,20.69
2018-03-26T01:13:58.501Z,20.72
2018-03-26T01:15:00.987Z,20.76
2018-03-26T01:16:03.492Z,20.80
2018-03-26T01:17:06.025Z,20.84
2018-03-26T01:18:08.534Z,20.86
2018-03-26T01:19:11.022Z,20.87
2018-03-26T01:20:13.514Z,20.89
2018-03-26T01:21:16.002Z,20.90
2018-03-26T01:22:18.511Z,20.90
2018-03-26T01:23:21.005Z,20.91
2018-03-26T01:24:23.516Z,20.91
2018-03-26T01:25:26.008Z,20.90
2018-03-26T01:26:28.498Z,20.91
2018-03-26T01:27:31.000Z,20.90
2018-03-26T01:28:33.520Z,20.90
2018-03-26T01:29:35.997Z,20.88
2018-03-26T01:30:38.495Z,20.88
2018-03-26T01:31:40.994Z,20.86
2018-03-26T01:32:43.507Z,20.84
2018-03-26T01:33:46.012Z,20.84
2018-03-26T01:34:48.489Z,20.83
2018-03-26T01:35:50.988Z,20.81
2018-03-26T01:36:53.474Z,20.80
2018-03-26T01:37:55.996Z,20.79
2018-03-26T01:38:58.501Z,20.78
2018-03-26T01:40:00.990Z,20.76
2018-03-26T01:41:03.476Z,20.75
2018-03-26T01:42:05.963Z,20.73
2018-03-26T01:43:08.467Z,20.72
2018-03-26T01:44:10.972Z,20.70
2018-03-26T01:45:13.463Z,20.69
2018-03-26T01:46:15.948Z,20.67
2018-03-26T01:47:18.434Z,20.66
2018-03-26T01:48:21.000Z,20.64
2018-03-26T01:49:23.490Z,20.63
2018-03-26T01:50:25.970Z,20.61
2018-03-26T01:51:28.481Z,20.60
2018-03-26T01:52:30.967Z,20.58
2018-03-26T01:53:33.481Z,20.56
2018-03-26T01:54:35.970Z,20.55
2018-03-26T01:55:38.529Z,20.54
2018-03-26T01:56:41.084Z,20.53
2018-03-26T01:57:43.578Z,20.52
2018-03-26T01:58:46.104Z,20.52
2018-03-26T01:59:48.609Z,20.50
2018-03-26T02:00:51.094Z,20.49
2018-03-26T02:01:53.579Z,20.48
2018-03-26T02:02:56.071Z,20.47
2018-03-26T02:03:58.578Z,20.46
2018-03-26T02:05:01.056Z,20.44
2018-03-26T02:06:03.592Z,20.43
2018-03-26T02:07:06.078Z,20.42
2018-03-26T02:08:08.570Z,20.42
2018-03-26T02:09:11.090Z,20.41
2018-03-26T02:10:13.578Z,20.41
2018-03-26T02:11:16.067Z,20.42
2018-03-26T02:12:18.545Z,20.45
2018-03-26T02:13:21.045Z,20.49
2018-03-26T02:14:23.555Z,20.55
2018-03-26T02:15:26.068Z,20.61
2018-03-26T02:16:28.565Z,20.68
2018-03-26T02:17:31.069Z,20.75
2018-03-26T02:18:33.566Z,20.79
2018-03-26T02:19:36.063Z,20.83
2018-03-26T02:20:38.536Z,20.87
2018-03-26T02:21:41.012Z,20.91
2018-03-26T02:22:43.488Z,20.92
2018-03-26T02:23:45.975Z,20.93
2018-03-26T02:24:48.461Z,20.95
2018-03-26T02:25:50.946Z,20.96
2018-03-26T02:26:53.472Z,20.97
2018-03-26T02:27:55.977Z,20.98
2018-03-26T02:28:58.474Z,20.97
2018-03-26T02:30:00.980Z,20.96
2018-03-26T02:31:03.470Z,20.95
2018-03-26T02:32:05.940Z,20.95
2018-03-26T02:33:08.430Z,20.93
2018-03-26T02:34:10.919Z,20.93
2018-03-26T02:35:13.430Z,20.91
2018-03-26T02:36:15.905Z,20.90
2018-03-26T02:37:18.395Z,20.89
2018-03-26T02:38:20.882Z,20.88
2018-03-26T02:39:23.369Z,20.86
2018-03-26T02:40:25.860Z,20.84
2018-03-26T02:41:28.363Z,20.83
2018-03-26T02:42:30.836Z,20.81
2018-03-26T02:43:33.323Z,20.79
2018-03-26T02:44:35.819Z,20.78
2018-03-26T02:45:38.327Z,20.76
2018-03-26T02:46:40.805Z,20.75
2018-03-26T02:47:43.287Z,20.73
2018-03-26T02:48:45.762Z,20.71
2018-03-26T02:49:48.247Z,20.71
2018-03-26T02:50:50.765Z,20.69
2018-03-26T02:51:53.256Z,20.68
2018-03-26T02:52:55.768Z,20.66
2018-03-26T02:53:58.244Z,20.65
2018-03-26T02:55:00.731Z,20.64
2018-03-26T02:56:03.247Z,20.63
2018-03-26T02:57:05.757Z,20.63
2018-03-26T02:58:08.247Z,20.61
2018-03-26T02:59:10.734Z,20.61
2018-03-26T03:00:13.238Z,20.60
2018-03-26T03:01:15.777Z,20.59
2018-03-26T03:02:18.271Z,20.57
2018-03-26T03:03:20.776Z,20.57
2018-03-26T03:04:23.278Z,20.56
2018-03-26T03:05:25.766Z,20.56
2018-03-26T03:06:28.256Z,20.54
2018-03-26T03:07:30.775Z,20.53
2018-03-26T03:08:33.261Z,20.52
2018-03-26T03:09:35.750Z,20.51
2018-03-26T03:10:38.248Z,20.50
2018-03-26T03:11:40.770Z,20.49
2018-03-26T03:12:43.264Z,20.48
2018-03-26T03:13:45.740Z,20.49
2018-03-26T03:14:48.231Z,20.50
2018-03-26T03:15:50.714Z,20.52
2018-03-26T03:16:53.299Z,20.56
2018-03-26T03:17:55.804Z,20.63
2018-03-26T03:18:58.326Z,20.69
2018-03-26T03:20:00.819Z,20.77
2018-03-26T03:21:03.317Z,20.81
2018-03-26T03:22:05.817Z,20.87
2018-03-26T03:23:08.310Z,20.90
2018-03-26T03:24:10.816Z,20.93
2018-03-26T03:25:13.321Z,20.95
2018-03-26T03:26:15.824Z,20.97
2018-03-26T03:27:18.362Z,20.98
2018-03-26T03:28:20.847Z,20.98
2018-03-26T03:29:23.345Z,20.99
2018-03-26T03:30:25.835Z,21.00
2018-03-26T03:31:28.359Z,20.99
2018-03-26T03:32:30.956Z,21.00
2018-03-26T03:33:33.446Z,21.00
2018-03-26T03:34:35.954Z,20.98
2018-03-26T03:35:38.438Z,20.96
2018-03-26T03:36:40.923Z,20.95
2018-03-26T03:37:43.416Z,20.95
2018-03-26T03:38:45.906Z,20.93
2018-03-26T03:39:48.406Z,20.91
2018-03-26T03:40:50.880Z,20.91
2018-03-26T03:41:53.385Z,20.88
2018-03-26T03:42:55.913Z,20.87
2018-03-26T03:43:58.402Z,20.86
2018-03-26T03:45:00.884Z,20.83
2018-03-26T03:46:03.376Z,20.82
2018-03-26T03:47:05.881Z,20.80
2018-03-26T03:48:08.405Z,20.79
2018-03-26T03:49:10.913Z,20.77
2018-03-26T03:50:13.399Z,20.75
2018-03-26T03:51:15.890Z,20.72
2018-03-26T03:52:18.393Z,20.71
2018-03-26T03:53:20.914Z,20.69
2018-03-26T03:54:23.407Z,20.67
2018-03-26T03:55:25.877Z,20.65
2018-03-26T03:56:28.360Z,20.63
2018-03-26T03:57:30.860Z,20.62
2018-03-26T03:58:33.366Z,20.60
2018-03-26T03:59:35.869Z,20.59
2018-03-26T04:00:38.372Z,20.58
2018-03-26T04:01:40.865Z,20.57
2018-03-26T04:02:43.361Z,20.54
2018-03-26T04:03:45.867Z,20.54
2018-03-26T04:04:48.377Z,20.52
2018-03-26T04:05:50.851Z,20.52
2018-03-26T04:06:53.334Z,20.49
2018-03-26T04:07:55.845Z,20.49
2018-03-26T04:08:58.361Z,20.47
2018-03-26T04:10:00.832Z,20.47
2018-03-26T04:11:03.323Z,20.46
2018-03-26T04:12:05.792Z,20.44
2018-03-26T04:13:08.266Z,20.43
2018-03-26T04:14:10.755Z,20.41
2018-03-26T04:15:13.242Z,20.39
2018-03-26T04:16:15.728Z,20.39
2018-03-26T04:17:18.219Z,20.40
2018-03-26T04:18:20.707Z,20.43
2018-03-26T04:19:23.214Z,20.48
2018-03-26T04:20:25.792Z,20.55
2018-03-26T04:21:28.352Z,20.59
2018-03-26T04:22:30.838Z,20.64
2018-03-26T04:23:33.325Z,20.69
2018-03-26T04:24:35.840Z,20.76
2018-03-26T04:25:38.318Z,20.81
2018-03-26T04:26:40.824Z,20.86
2018-03-26T04:27:43.305Z,20.88
2018-03-26T04:28:45.814Z,20.91
2018-03-26T04:29:48.342Z,20.93
2018-03-26T04:30:50.830Z,20.93
2018-03-26T04:31:53.320Z,20.94
2018-03-26T04:32:55.820Z,20.95
2018-03-26T04:33:58.320Z,20.96
2018-03-26T04:35:00.830Z,20.96
2018-03-26T04:36:03.320Z,20.96
2018-03-26T04:37:05.832Z,20.95
2018-03-26T04:38:08.341Z,20.94
2018-03-26T04:39:10.830Z,20.93
2018-03-26T04:40:13.321Z,20.92
2018-03-26T04:41:15.816Z,20.91
2018-03-26T04:42:18.284Z,20.89
2018-03-26T04:43:20.764Z,20.88
2018-03-26T04:44:23.265Z,20.87
2018-03-26T04:45:25.774Z,20.84
2018-03-26T04:46:28.256Z,20.83
2018-03-26T04:47:30.750Z,20.81
2018-03-26T04:48:33.249Z,20.79
2018-03-26T04:49:35.735Z,20.77
2018-03-26T04:50:38.243Z,20.75
2018-03-26T04:51:40.736Z,20.74
2018-03-26T04:52:43.209Z,20.72
2018-03-26T04:53:45.711Z,20.71
2018-03-26T04:54:48.221Z,20.70
2018-03-26T04:55:50.785Z,20.68
2018-03-26T04:56:53.251Z,20.66
2018-03-26T04:57:55.752Z,20.65
2018-03-26T04:58:58.246Z,20.64
2018-03-26T05:00:00.730Z,20.62
2018-03-26T05:01:03.293Z,20.60
2018-03-26T05:02:05.767Z,20.59
2018-03-26T05:03:08.273Z,20.58
2018-03-26T05:04:10.744Z,20.56
2018-03-26T05:05:13.234Z,20.54
2018-03-26T05:06:15.771Z,20.53
2018-03-26T05:07:18.263Z,20.52
2018-03-26T05:08:20.746Z,20.50
2018-03-26T05:09:23.230Z,20.49
2018-03-26T05:10:25.744Z,20.49
2018-03-26T05:11:28.332Z,20.47
2018-03-26T05:12:30.827Z,20.46
2018-03-26T05:13:33.325Z,20.45
2018-03-26T05:14:35.819Z,20.44
2018-03-26T05:15:38.323Z,20.44
2018-03-26T05:16:40.827Z,20.44
2018-03-26T05:17:43.324Z,20.47
2018-03-26T05:18:45.816Z,20.51
2018-03-26T05:19:48.323Z,20.56
2018-03-26T05:20:50.827Z,20.64
2018-03-26T05:21:53.334Z,20.70
2018-03-26T05:22:55.850Z,20.75
2018-03-26T05:23:58.337Z,20.80
2018-03-26T05:25:00.824Z,20.84
2018-03-26T05:26:03.328Z,20.88
2018-03-26T05:27:05.848Z,20.90
2018-03-26T05:28:08.338Z,20.93
2018-03-26T05:29:10.840Z,20.94
2018-03-26T05:30:13.335Z,20.95
2018-03-26T05:31:15.812Z,20.96
2018-03-26T05:32:18.345Z,20.96
2018-03-26T05:33:20.828Z,20.96
2018-03-26T05:34:23.322Z,20.97
2018-03-26T05:35:25.829Z,20.97
2018-03-26T05:36:28.323Z,20.97
2018-03-26T05:37:30.845Z,20.95
2018-03-26T05:38:33.338Z,20.94
2018-03-26T05:39:35.841Z,20.92
2018-03-26T05:40:38.414Z,20.91
2018-03-26T05:41:40.887Z,20.90
2018-03-26T05:42:43.402Z,20.88
2018-03-26T05:43:45.957Z,20.87
2018-03-26T05:44:48.450Z,20.86
2018-03-26T05:45:50.937Z,20.84
2018-03-26T05:46:53.409Z,20.82
2018-03-26T05:47:55.924Z,20.80
2018-03-26T05:48:58.410Z,20.79
2018-03-26T05:50:00.902Z,20.78
2018-03-26T05:51:03.395Z,20.76
2018-03-26T05:52:05.900Z,20.75
2018-03-26T05:53:08.406Z,20.74
2018-03-26T05:54:10.905Z,20.71
2018-03-26T05:55:13.390Z,20.69
2018-03-26T05:56:15.864Z,20.67
2018-03-26T05:57:18.465Z,20.65
2018-03-26T05:58:20.985Z,20.64
2018-03-26T05:59:23.478Z,20.62
2018-03-26T06:00:25.964Z,20.60
2018-03-26T06:01:28.476Z,20.59
2018-03-26T06:02:30.976Z,20.57
2018-03-26T06:03:33.510Z,20.55
2018-03-26T06:04:35.992Z,20.53
2018-03-26T06:05:38.497Z,20.51
2018-03-26T06:06:40.992Z,20.51
2018-03-26T06:07:43.489Z,20.49
2018-03-26T06:08:45.996Z,20.48
2018-03-26T06:09:48.484Z,20.46
2018-03-26T06:10:50.985Z,20.44
2018-03-26T06:11:53.582Z,20.44
2018-03-26T06:12:56.102Z,20.43
2018-03-26T06:13:58.615Z,20.42
2018-03-26T06:15:01.126Z,20.39
2018-03-26T06:16:03.638Z,20.39
2018-03-26T06:17:13.664Z,20.38
2018-03-26T06:18:16.177Z,20.36
2018-03-26T06:19:18.685Z,20.36
2018-03-26T06:20:21.191Z,20.34
2018-03-26T06:21:23.685Z,20.34
2018-03-26T06:22:26.245Z,20.33
2018-03-26T06:23:28.739Z,20.32
2018-03-26T06:24:31.246Z,20.31
2018-03-26T06:25:33.754Z,20.30
2018-03-26T06:26:36.250Z,20.29
2018-03-26T06:27:38.742Z,20.28
2018-03-26T06:28:41.226Z,20.26
2018-03-26T06:29:43.727Z,20.26
2018-03-26T06:30:46.224Z,20.24
2018-03-26T06:31:48.733Z,20.23
2018-03-26T06:32:51.244Z,20.23
2018-03-26T06:33:53.743Z,20.22
2018-03-26T06:34:56.253Z,20.21
2018-03-26T06:35:58.761Z,20.19
2018-03-26T06:37:05.808Z,20.19
2018-03-26T06:38:18.211Z,20.19
2018-03-26T06:39:21.504Z,20.17
2018-03-26T06:40:24.055Z,20.16
2018-03-26T06:41:26.555Z,20.15
2018-03-26T06:42:29.050Z,20.14
2018-03-26T06:43:31.548Z,20.13
2018-03-26T06:44:34.056Z,20.13
2018-03-26T06:45:36.563Z,20.11
2018-03-26T06:46:39.050Z,20.10
2018-03-26T06:47:41.553Z,20.09
2018-03-26T06:48:44.059Z,20.09
2018-03-26T06:49:46.565Z,20.08
2018-03-26T06:50:49.063Z,20.08
2018-03-26T06:51:51.559Z,20.07
2018-03-26T06:52:54.046Z,20.07
2018-03-26T06:53:56.552Z,20.06
2018-03-26T06:54:59.037Z,20.05
2018-03-26T06:56:01.564Z,20.04
2018-03-26T06:57:04.123Z,20.03
2018-03-26T06:58:06.659Z,20.02
2018-03-26T06:59:09.163Z,20.02
2018-03-26T07:00:11.654Z,20.01
2018-03-26T07:01:14.170Z,20.01
2018-03-26T07:02:16.672Z,20.00
2018-03-26T07:03:19.180Z,19.98
2018-03-26T07:04:21.670Z,19.98
2018-03-26T07:05:24.158Z,19.97
2018-03-26T07:06:26.683Z,19.96
2018-03-26T07:07:29.178Z,19.96
2018-03-26T07:08:31.662Z,19.95
2018-03-26T07:09:34.160Z,19.95
2018-03-26T07:10:36.659Z,19.94
2018-03-26T07:11:39.178Z,19.93
2018-03-26T07:12:41.662Z,19.92
2018-03-26T07:13:44.132Z,19.91
2018-03-26T07:14:46.622Z,19.90
2018-03-26T07:15:49.155Z,19.90
2018-03-26T07:16:51.659Z,19.89
2018-03-26T07:17:54.128Z,19.88
2018-03-26T07:18:56.651Z,19.87
2018-03-26T07:19:59.143Z,19.87
2018-03-26T07:21:01.630Z,19.87
2018-03-26T07:22:04.154Z,19.87
2018-03-26T07:23:06.638Z,19.86
2018-03-26T07:24:09.112Z,19.85
2018-03-26T07:25:11.598Z,19.85
2018-03-26T07:26:14.086Z,19.84
2018-03-26T07:27:16.604Z,19.84
2018-03-26T07:28:19.190Z,19.83
2018-03-26T07:29:21.695Z,19.83
2018-03-26T07:30:24.186Z,19.83
2018-03-26T07:31:26.746Z,19.81
2018-03-26T07:32:29.287Z,19.81
2018-03-26T07:33:31.779Z,19.80
2018-03-26T07:34:34.266Z,19.79
2018-03-26T07:35:36.783Z,19.78
2018-03-26T07:36:39.339Z,19.78
2018-03-26T07:37:41.864Z,19.77
2018-03-26T07:38:44.369Z,19.76
2018-03-26T07:39:46.841Z,19.75
2018-03-26T07:40:49.413Z,19.75
2018-03-26T07:41:51.902Z,19.74
2018-03-26T07:42:54.407Z,19.73
2018-03-26T07:43:56.907Z,19.74
2018-03-26T07:44:59.435Z,19.73
2018-03-26T07:46:01.916Z,19.72
2018-03-26T07:47:04.407Z,19.72
2018-03-26T07:48:06.901Z,19.71
2018-03-26T07:49:09.384Z,19.71
2018-03-26T07:50:11.879Z,19.70
2018-03-26T07:51:14.369Z,19.70
2018-03-26T07:52:16.839Z,19.68
2018-03-26T07:53:19.366Z,19.68
2018-03-26T07:54:21.868Z,19.67
2018-03-26T07:55:24.378Z,19.67
2018-03-26T07:56:26.875Z,19.66
2018-03-26T07:57:29.387Z,19.65
2018-03-26T07:58:31.884Z,19.65
2018-03-26T07:59:34.378Z,19.65
2018-03-26T08:00:36.874Z,19.65
2018-03-26T08:01:39.367Z,19.65
2018-03-26T08:02:41.882Z,19.65
2018-03-26T08:03:44.374Z,19.64
2018-03-26T08:04:46.862Z,19.65
2018-03-26T08:05:49.378Z,19.64
2018-03-26T08:06:51.885Z,19.63
2018-03-26T08:07:54.397Z,19.63
2018-03-26T08:08:56.900Z,19.62
2018-03-26T08:09:59.394Z,19.61
2018-03-26T08:11:01.908Z,19.61
2018-03-26T08:12:04.394Z,19.60
2018-03-26T08:13:06.882Z,19.60
2018-03-26T08:14:09.378Z,19.59
2018-03-26T08:15:11.848Z,19.58
2018-03-26T08:16:14.353Z,19.58
2018-03-26T08:17:16.855Z,19.58
2018-03-26T08:18:19.336Z,19.57
2018-03-26T08:19:21.861Z,19.57
2018-03-26T08:20:24.375Z,19.56
2018-03-26T08:21:26.886Z,19.55
2018-03-26T08:22:29.389Z,19.55
2018-03-26T08:23:31.898Z,19.55
2018-03-26T08:24:34.407Z,19.53
2018-03-26T08:25:36.935Z,19.53
2018-03-26T08:26:39.426Z,19.51
2018-03-26T08:27:41.918Z,19.52
2018-03-26T08:28:44.425Z,19.51
2018-03-26T08:29:46.941Z,19.51
2018-03-26T08:30:49.420Z,19.50
2018-03-26T08:31:51.918Z,19.50
2018-03-26T08:32:54.419Z,19.50
2018-03-26T08:33:56.957Z,19.48
2018-03-26T08:34:59.446Z,19.49
2018-03-26T08:36:01.927Z,19.49
2018-03-26T08:37:04.419Z,19.48
2018-03-26T08:38:06.925Z,19.47
2018-03-26T08:39:09.423Z,19.48
2018-03-26T08:40:11.927Z,19.47
2018-03-26T08:41:14.434Z,19.47
2018-03-26T08:42:16.957Z,19.46
2018-03-26T08:43:19.503Z,19.47
2018-03-26T08:44:21.956Z,19.45
2018-03-26T08:45:24.491Z,19.46
2018-03-26T08:46:26.972Z,19.45
2018-03-26T08:47:29.476Z,19.45
2018-03-26T08:48:31.963Z,19.44
2018-03-26T08:49:34.436Z,19.42
2018-03-26T08:50:36.953Z,19.43
2018-03-26T08:51:39.456Z,19.42
2018-03-26T08:52:42.012Z,19.42
2018-03-26T08:53:44.524Z,19.42
2018-03-26T08:54:47.019Z,19.41
2018-03-26T08:55:49.534Z,19.41
2018-03-26T08:56:52.012Z,19.41
2018-03-26T08:57:54.504Z,19.40
2018-03-26T08:58:56.990Z,19.40
2018-03-26T08:59:59.489Z,19.39
2018-03-26T09:01:02.003Z,19.39
2018-03-26T09:02:04.539Z,19.38
2018-03-26T09:03:07.038Z,19.39
2018-03-26T09:04:09.536Z,19.38
2018-03-26T09:05:12.024Z,19.38
2018-03-26T09:06:14.520Z,19.37
2018-03-26T09:07:17.014Z,19.38
2018-03-26T09:08:19.506Z,19.38
2018-03-26T09:09:21.995Z,19.37
2018-03-26T09:10:24.510Z,19.37
2018-03-26T09:11:27.016Z,19.35
2018-03-26T09:12:29.500Z,19.36
2018-03-26T09:13:32.000Z,19.37
2018-03-26T09:14:34.514Z,19.37
2018-03-26T09:15:37.021Z,19.37
2018-03-26T09:16:39.516Z,19.36
2018-03-26T09:17:42.007Z,19.34
2018-03-26T09:18:44.492Z,19.35
2018-03-26T09:19:47.001Z,19.35
2018-03-26T09:20:49.486Z,19.34
2018-03-26T09:21:51.990Z,19.34
2018-03-26T09:22:54.460Z,19.33
2018-03-26T09:23:57.076Z,19.33
2018-03-26T09:24:59.582Z,19.32
2018-03-26T09:26:02.122Z,19.32
2018-03-26T09:27:04.758Z,19.32
2018-03-26T09:28:07.254Z,19.31
2018-03-26T09:29:09.739Z,19.31
2018-03-26T09:30:12.217Z,19.31
2018-03-26T09:31:14.723Z,19.30
2018-03-26T09:32:17.289Z,19.30
2018-03-26T09:33:19.778Z,19.30
2018-03-26T09:34:22.276Z,19.31
2018-03-26T09:35:24.782Z,19.30
2018-03-26T09:36:27.271Z,19.29
2018-03-26T09:37:29.802Z,19.28
2018-03-26T09:38:32.291Z,19.29
2018-03-26T09:39:34.807Z,19.28
2018-03-26T09:40:37.323Z,19.28
2018-03-26T09:41:39.800Z,19.28
2018-03-26T09:42:42.314Z,19.27
2018-03-26T09:43:44.842Z,19.27
2018-03-26T09:44:47.328Z,19.27
2018-03-26T09:45:49.865Z,19.27
2018-03-26T09:46:52.422Z,19.28
2018-03-26T09:47:54.967Z,19.30
2018-03-26T09:48:57.487Z,19.30
2018-03-26T09:49:59.976Z,19.31
2018-03-26T09:51:02.494Z,19.31
2018-03-26T09:52:05.002Z,19.30
2018-03-26T09:53:07.498Z,19.30
2018-03-26T09:54:09.986Z,19.31
2018-03-26T09:55:12.493Z,19.31
2018-03-26T09:56:14.982Z,19.31
2018-03-26T09:57:17.470Z,19.30
2018-03-26T09:58:19.984Z,19.30
2018-03-26T09:59:22.461Z,19.30
2018-03-26T10:00:30.524Z,19.30
2018-03-26T10:01:33.015Z,19.29
2018-03-26T10:02:35.511Z,19.29
2018-03-26T10:03:38.010Z,19.28
2018-03-26T10:04:40.513Z,19.28
2018-03-26T10:05:43.834Z,19.27
2018-03-26T10:06:46.327Z,19.27
2018-03-26T10:07:48.810Z,19.28
2018-03-26T10:08:51.313Z,19.29
2018-03-26T10:09:53.816Z,19.30
2018-03-26T10:10:56.304Z,19.32
2018-03-26T10:11:58.804Z,19.33
2018-03-26T10:13:01.291Z,19.33
2018-03-26T10:14:03.789Z,19.33
2018-03-26T10:15:06.293Z,19.33
2018-03-26T10:16:08.790Z,19.31
2018-03-26T10:17:11.279Z,19.29
2018-03-26T10:18:13.798Z,19.29
2018-03-26T10:19:16.306Z,19.28
2018-03-26T10:20:18.798Z,19.27
2018-03-26T10:21:21.272Z,19.29
2018-03-26T10:22:23.749Z,19.29
2018-03-26T10:23:26.239Z,19.28
2018-03-26T10:24:28.758Z,19.26
2018-03-26T10:25:31.249Z,19.23
2018-03-26T10:26:33.753Z,19.20
2018-03-26T10:27:36.242Z,19.17
2018-03-26T10:28:38.720Z,19.18
2018-03-26T10:29:41.227Z,19.19
2018-03-26T10:30:43.709Z,19.19
2018-03-26T10:31:46.279Z,19.18
2018-03-26T10:32:49.028Z,19.19
2018-03-26T10:33:51.685Z,19.19
2018-03-26T10:34:54.277Z,19.19
2018-03-26T10:35:56.853Z,19.18
2018-03-26T10:36:59.675Z,19.17
2018-03-26T10:38:02.224Z,19.17
2018-03-26T10:39:04.811Z,19.17
2018-03-26T10:40:07.414Z,19.18
2018-03-26T10:41:10.100Z,19.18
2018-03-26T10:42:12.748Z,19.17
2018-03-26T10:43:15.404Z,19.17
2018-03-26T10:44:18.106Z,19.16
2018-03-26T10:45:20.830Z,19.16
2018-03-26T10:46:23.437Z,19.17
2018-03-26T10:47:26.098Z,19.17
2018-03-26T10:48:28.753Z,19.16
2018-03-26T10:49:31.424Z,19.16
2018-03-26T10:50:34.092Z,19.16
2018-03-26T10:51:36.642Z,19.14
2018-03-26T10:52:39.190Z,19.13
2018-03-26T10:53:41.740Z,19.13
2018-03-26T10:54:44.320Z,19.11
2018-03-26T10:55:46.990Z,19.12
2018-03-26T10:56:49.632Z,19.12
2018-03-26T10:57:52.402Z,19.13
2018-03-26T10:58:54.986Z,19.12
2018-03-26T10:59:57.590Z,19.10
2018-03-26T11:01:00.300Z,19.09
2018-03-26T11:02:02.939Z,19.07
2018-03-26T11:03:05.577Z,19.07
2018-03-26T11:04:08.125Z,19.06
2018-03-26T11:05:10.696Z,19.06
2018-03-26T11:06:13.380Z,19.05
2018-03-26T11:07:15.942Z,19.06
2018-03-26T11:08:18.588Z,19.06
2018-03-26T11:09:21.170Z,19.07
2018-03-26T11:10:23.813Z,19.08
2018-03-26T11:11:26.606Z,19.10
2018-03-26T11:12:29.253Z,19.11
2018-03-26T11:13:31.803Z,19.13
2018-03-26T11:14:34.378Z,19.15
2018-03-26T11:15:36.953Z,19.17
2018-03-26T11:16:39.548Z,19.18
2018-03-26T11:17:42.183Z,19.18
2018-03-26T11:18:44.843Z,19.18
2018-03-26T11:19:47.399Z,19.18
2018-03-26T11:20:49.962Z,19.17
2018-03-26T11:21:52.629Z,19.16
2018-03-26T11:22:55.185Z,19.17
2018-03-26T11:23:57.946Z,19.19
2018-03-26T11:25:00.613Z,19.21
2018-03-26T11:26:03.239Z,19.24
2018-03-26T11:27:05.932Z,19.27
2018-03-26T11:28:08.540Z,19.30
2018-03-26T11:29:11.099Z,19.33
2018-03-26T11:30:13.689Z,19.37
2018-03-26T11:31:16.276Z,19.41
2018-03-26T11:32:18.953Z,19.45
2018-03-26T11:33:21.516Z,19.48
2018-03-26T11:34:24.167Z,19.50
2018-03-26T11:35:26.729Z,19.53
2018-03-26T11:36:29.373Z,19.54
2018-03-26T11:37:31.999Z,19.56
2018-03-26T11:38:34.560Z,19.56
2018-03-26T11:39:37.272Z,19.56
2018-03-26T11:40:39.827Z,19.56
2018-03-26T11:41:42.382Z,19.56
2018-03-26T11:42:44.930Z,19.55
2018-03-26T11:43:47.475Z,19.55
2018-03-26T11:44:50.032Z,19.54
2018-03-26T11:45:52.631Z,19.54
2018-03-26T11:46:55.272Z,19.53
2018-03-26T11:47:57.859Z,19.54
2018-03-26T11:49:00.424Z,19.53
2018-03-26T11:50:03.101Z,19.53
2018-03-26T11:51:05.734Z,19.52
2018-03-26T11:52:08.321Z,19.52
2018-03-26T11:53:10.882Z,19.53
2018-03-26T11:54:13.548Z,19.54
2018-03-26T11:55:16.160Z,19.55
2018-03-26T11:56:18.766Z,19.55
2018-03-26T11:57:21.383Z,19.56
2018-03-26T11:58:24.087Z,19.57
2018-03-26T11:59:26.711Z,19.57
2018-03-26T12:00:29.307Z,19.57
2018-03-26T12:01:31.854Z,19.58
2018-03-26T12:02:34.547Z,19.57
2018-03-26T12:03:37.204Z,19.56
2018-03-26T12:04:39.871Z,19.56
2018-03-26T12:05:42.540Z,19.56
2018-03-26T12:06:45.158Z,19.54
2018-03-26T12:07:47.859Z,19.54
2018-03-26T12:08:50.487Z,19.53
2018-03-26T12:09:53.029Z,19.52
2018-03-26T12:10:55.583Z,19.53
2018-03-26T12:11:58.208Z,19.52
2018-03-26T12:13:00.909Z,19.53
2018-03-26T12:14:03.618Z,19.53
2018-03-26T12:15:06.268Z,19.53
2018-03-26T12:16:09.203Z,19.53
2018-03-26T12:17:11.819Z,19.54
2018-03-26T12:18:14.352Z,19.55
2018-03-26T12:19:17.125Z,19.55
2018-03-26T12:20:31.510Z,19.56
2018-03-26T12:21:34.139Z,19.56
2018-03-26T12:22:36.801Z,19.57
2018-03-26T12:23:51.071Z,19.57
2018-03-26T12:25:16.245Z,19.57
2018-03-26T12:26:18.803Z,19.58
2018-03-26T12:27:21.446Z,19.58
2018-03-26T12:30:14.574Z,19.58
2018-03-26T12:31:17.222Z,19.57
2018-03-26T12:32:19.815Z,19.57
2018-03-26T12:33:22.472Z,19.58
2018-03-26T12:34:36.889Z,19.58
2018-03-26T12:35:59.762Z,19.56
2018-03-26T12:37:02.343Z,19.56
2018-03-26T12:38:04.895Z,19.55
2018-03-26T12:39:07.453Z,19.55
2018-03-26T12:41:51.972Z,19.54
2018-03-26T12:42:54.551Z,19.54
2018-03-26T12:43:57.107Z,19.54
2018-03-26T12:45:11.370Z,19.54
2018-03-26T12:47:53.991Z,19.53
2018-03-26T12:48:56.533Z,19.54
2018-03-26T12:49:59.063Z,19.54
2018-03-26T12:51:13.464Z,19.54
2018-03-26T12:52:27.872Z,19.55
2018-03-26T12:53:30.399Z,19.54
2018-03-26T12:54:33.122Z,19.55
2018-03-26T12:55:35.648Z,19.54
2018-03-26T12:56:38.191Z,19.54
2018-03-26T12:59:22.082Z,19.53
2018-03-26T13:00:24.634Z,19.53
2018-03-26T13:01:39.200Z,19.52
2018-03-26T13:02:41.838Z,19.53
2018-03-26T13:03:44.408Z,19.51
2018-03-26T13:04:46.972Z,19.51
2018-03-26T13:05:49.506Z,19.51
2018-03-26T13:06:52.156Z,19.50
2018-03-26T13:07:54.701Z,19.50
2018-03-26T13:08:57.284Z,19.50
2018-03-26T13:09:59.834Z,19.49
2018-03-26T13:11:02.517Z,19.49
2018-03-26T13:12:05.036Z,19.48
2018-03-26T13:13:07.557Z,19.48
2018-03-26T13:14:10.116Z,19.47
2018-03-26T13:15:12.762Z,19.47
2018-03-26T13:16:15.294Z,19.45
2018-03-26T13:17:17.942Z,19.44
2018-03-26T13:18:20.610Z,19.44
2018-03-26T13:19:23.170Z,19.44
2018-03-26T13:20:25.856Z,19.44
2018-03-26T13:21:28.412Z,19.43
2018-03-26T13:22:31.099Z,19.42
2018-03-26T13:23:33.815Z,19.42
2018-03-26T13:24:36.614Z,19.42
2018-03-26T13:25:39.251Z,19.42
2018-03-26T13:26:41.834Z,19.40
2018-03-26T13:27:44.395Z,19.41
2018-03-26T13:28:47.116Z,19.41
2018-03-26T13:29:49.729Z,19.40
2018-03-26T13:30:52.270Z,19.40
2018-03-26T13:31:54.944Z,19.40
2018-03-26T13:32:57.612Z,19.39
2018-03-26T13:34:00.142Z,19.39